sensor_id;sensor_type;location;lat;lon;timestamp;temperature;humidity
38325;DHT22;24126;52.672;13.622;2023-10-19T00:02:05;12.20;59.90
38325;DHT22;24126;52.672;13.622;2023-10-19T00:04:32;12.20;60.00
38325;DHT22;24126;52.672;13.622;2023-10-19T00:07:00;12.20;60.00
38325;DHT22;24126;52.672;13.622;2023-10-19T00:09:30;12.20;60.00
38325;DHT22;24126;52.672;13.622;2023-10-19T00:12:05;12.20;60.00
38325;DHT22;24126;52.672;13.622;2023-10-19T00:14:35;12.20;60.00
38325;DHT22;24126;52.672;13.622;2023-10-19T00:17:01;12.10;60.00
38325;DHT22;24126;52.672;13.622;2023-10-19T00:19:34;12.10;60.00
38325;DHT22;24126;52.672;13.622;2023-10-19T00:22:05;12.10;60.20
38325;DHT22;24126;52.672;13.622;2023-10-19T00:24:34;12.10;60.10
38325;DHT22;24126;52.672;13.622;2023-10-19T00:27:02;12.10;60.20
38325;DHT22;24126;52.672;13.622;2023-10-19T00:29:33;12.10;60.30
38325;DHT22;24126;52.672;13.622;2023-10-19T00:32:06;12.10;60.00
38325;DHT22;24126;52.672;13.622;2023-10-19T00:34:39;12.10;60.10
38325;DHT22;24126;52.672;13.622;2023-10-19T00:37:07;12.10;60.10
38325;DHT22;24126;52.672;13.622;2023-10-19T00:39:36;12.10;60.30
38325;DHT22;24126;52.672;13.622;2023-10-19T00:42:09;12.20;60.20
38325;DHT22;24126;52.672;13.622;2023-10-19T00:44:37;12.20;60.00
38325;DHT22;24126;52.672;13.622;2023-10-19T00:47:08;12.20;59.90
38325;DHT22;24126;52.672;13.622;2023-10-19T00:49:39;12.20;59.90
38325;DHT22;24126;52.672;13.622;2023-10-19T00:52:08;12.20;59.90
38325;DHT22;24126;52.672;13.622;2023-10-19T00:54:39;12.20;60.00
38325;DHT22;24126;52.672;13.622;2023-10-19T00:57:12;12.10;60.00
38325;DHT22;24126;52.672;13.622;2023-10-19T00:59:41;12.10;59.90
38325;DHT22;24126;52.672;13.622;2023-10-19T01:02:13;12.00;60.20
38325;DHT22;24126;52.672;13.622;2023-10-19T01:04:49;12.00;60.50
38325;DHT22;24126;52.672;13.622;2023-10-19T01:07:28;12.00;60.60
38325;DHT22;24126;52.672;13.622;2023-10-19T01:09:59;12.00;60.30
38325;DHT22;24126;52.672;13.622;2023-10-19T01:12:30;12.00;60.60
38325;DHT22;24126;52.672;13.622;2023-10-19T01:17:38;12.00;60.50
38325;DHT22;24126;52.672;13.622;2023-10-19T01:20:06;12.00;60.40
38325;DHT22;24126;52.672;13.622;2023-10-19T01:25:46;12.10;60.50
38325;DHT22;24126;52.672;13.622;2023-10-19T01:28:16;12.10;60.30
38325;DHT22;24126;52.672;13.622;2023-10-19T01:30:44;12.10;60.40
38325;DHT22;24126;52.672;13.622;2023-10-19T01:33:11;12.00;60.30
38325;DHT22;24126;52.672;13.622;2023-10-19T01:35:41;12.00;60.50
38325;DHT22;24126;52.672;13.622;2023-10-19T01:38:27;12.10;60.50
38325;DHT22;24126;52.672;13.622;2023-10-19T01:41:01;12.10;60.40
38325;DHT22;24126;52.672;13.622;2023-10-19T01:43:27;12.00;60.30
38325;DHT22;24126;52.672;13.622;2023-10-19T01:45:57;12.00;60.60
38325;DHT22;24126;52.672;13.622;2023-10-19T01:48:23;11.90;60.70
38325;DHT22;24126;52.672;13.622;2023-10-19T01:51:03;11.90;60.90
38325;DHT22;24126;52.672;13.622;2023-10-19T01:53:31;11.80;60.90
38325;DHT22;24126;52.672;13.622;2023-10-19T01:55:59;11.80;60.90
38325;DHT22;24126;52.672;13.622;2023-10-19T01:58:25;11.80;61.20
38325;DHT22;24126;52.672;13.622;2023-10-19T02:00:55;11.80;61.20
38325;DHT22;24126;52.672;13.622;2023-10-19T02:03:21;11.80;61.20
38325;DHT22;24126;52.672;13.622;2023-10-19T02:05:57;11.80;61.10
38325;DHT22;24126;52.672;13.622;2023-10-19T02:08:25;11.80;61.20
38325;DHT22;24126;52.672;13.622;2023-10-19T02:10:53;11.70;61.50
38325;DHT22;24126;52.672;13.622;2023-10-19T02:13:19;11.70;61.40
38325;DHT22;24126;52.672;13.622;2023-10-19T02:15:46;11.70;61.50
38325;DHT22;24126;52.672;13.622;2023-10-19T02:18:15;11.60;61.30
38325;DHT22;24126;52.672;13.622;2023-10-19T02:20:43;11.60;61.80
38325;DHT22;24126;52.672;13.622;2023-10-19T02:23:14;11.60;61.80
38325;DHT22;24126;52.672;13.622;2023-10-19T02:25:40;11.60;61.80
38325;DHT22;24126;52.672;13.622;2023-10-19T02:28:08;11.60;61.70
38325;DHT22;24126;52.672;13.622;2023-10-19T02:30:35;11.60;61.90
38325;DHT22;24126;52.672;13.622;2023-10-19T02:33:02;11.60;61.80
38325;DHT22;24126;52.672;13.622;2023-10-19T02:35:29;11.50;62.00
38325;DHT22;24126;52.672;13.622;2023-10-19T02:37:56;11.50;62.20
38325;DHT22;24126;52.672;13.622;2023-10-19T02:40:24;11.50;62.10
38325;DHT22;24126;52.672;13.622;2023-10-19T02:42:54;11.50;62.10
38325;DHT22;24126;52.672;13.622;2023-10-19T02:45:21;11.60;62.00
38325;DHT22;24126;52.672;13.622;2023-10-19T02:47:47;11.50;62.00
38325;DHT22;24126;52.672;13.622;2023-10-19T02:50:16;11.50;62.20
38325;DHT22;24126;52.672;13.622;2023-10-19T02:52:43;11.50;62.10
38325;DHT22;24126;52.672;13.622;2023-10-19T02:55:10;11.50;62.30
38325;DHT22;24126;52.672;13.622;2023-10-19T02:57:36;11.50;62.20
38325;DHT22;24126;52.672;13.622;2023-10-19T03:00:04;11.50;62.30
38325;DHT22;24126;52.672;13.622;2023-10-19T03:02:37;11.50;62.40
38325;DHT22;24126;52.672;13.622;2023-10-19T03:05:05;11.50;62.40
38325;DHT22;24126;52.672;13.622;2023-10-19T03:07:42;11.50;62.50
38325;DHT22;24126;52.672;13.622;2023-10-19T03:10:10;11.50;62.50
38325;DHT22;24126;52.672;13.622;2023-10-19T03:12:49;11.50;62.50
38325;DHT22;24126;52.672;13.622;2023-10-19T03:15:17;11.50;62.40
38325;DHT22;24126;52.672;13.622;2023-10-19T03:17:46;11.50;62.30
38325;DHT22;24126;52.672;13.622;2023-10-19T03:20:14;11.50;62.40
38325;DHT22;24126;52.672;13.622;2023-10-19T03:22:42;11.50;62.60
38325;DHT22;24126;52.672;13.622;2023-10-19T03:25:12;11.40;62.50
38325;DHT22;24126;52.672;13.622;2023-10-19T03:27:57;11.40;62.50
38325;DHT22;24126;52.672;13.622;2023-10-19T03:30:24;11.40;62.80
38325;DHT22;24126;52.672;13.622;2023-10-19T03:32:54;11.40;62.80
38325;DHT22;24126;52.672;13.622;2023-10-19T03:35:21;11.40;63.10
38325;DHT22;24126;52.672;13.622;2023-10-19T03:37:48;11.40;63.00
38325;DHT22;24126;52.672;13.622;2023-10-19T03:40:17;11.40;63.00
38325;DHT22;24126;52.672;13.622;2023-10-19T03:42:52;11.40;62.90
38325;DHT22;24126;52.672;13.622;2023-10-19T03:45:20;11.40;62.70
38325;DHT22;24126;52.672;13.622;2023-10-19T03:47:52;11.40;62.90
38325;DHT22;24126;52.672;13.622;2023-10-19T03:50:21;11.40;62.80
38325;DHT22;24126;52.672;13.622;2023-10-19T03:52:49;11.30;62.90
38325;DHT22;24126;52.672;13.622;2023-10-19T03:55:17;11.30;63.10
38325;DHT22;24126;52.672;13.622;2023-10-19T03:57:45;11.30;63.30
38325;DHT22;24126;52.672;13.622;2023-10-19T04:00:16;11.30;63.30
38325;DHT22;24126;52.672;13.622;2023-10-19T04:02:45;11.30;63.40
38325;DHT22;24126;52.672;13.622;2023-10-19T04:05:12;11.30;63.30
38325;DHT22;24126;52.672;13.622;2023-10-19T04:07:46;11.30;63.20
38325;DHT22;24126;52.672;13.622;2023-10-19T04:10:15;11.30;63.40
38325;DHT22;24126;52.672;13.622;2023-10-19T04:12:56;11.30;63.50
38325;DHT22;24126;52.672;13.622;2023-10-19T04:15:26;11.30;63.50
38325;DHT22;24126;52.672;13.622;2023-10-19T04:17:54;11.20;63.40
38325;DHT22;24126;52.672;13.622;2023-10-19T04:20:24;11.20;63.70
38325;DHT22;24126;52.672;13.622;2023-10-19T04:22:56;11.20;63.60
38325;DHT22;24126;52.672;13.622;2023-10-19T04:25:24;11.10;63.80
38325;DHT22;24126;52.672;13.622;2023-10-19T04:27:52;11.10;63.80
38325;DHT22;24126;52.672;13.622;2023-10-19T04:30:20;11.10;63.80
38325;DHT22;24126;52.672;13.622;2023-10-19T04:32:49;11.20;63.90
38325;DHT22;24126;52.672;13.622;2023-10-19T04:35:17;11.20;63.90
38325;DHT22;24126;52.672;13.622;2023-10-19T04:37:48;11.20;63.90
38325;DHT22;24126;52.672;13.622;2023-10-19T04:40:16;11.30;63.70
38325;DHT22;24126;52.672;13.622;2023-10-19T04:42:43;11.30;63.70
38325;DHT22;24126;52.672;13.622;2023-10-19T04:45:10;11.30;63.80
38325;DHT22;24126;52.672;13.622;2023-10-19T04:47:38;11.30;63.80
38325;DHT22;24126;52.672;13.622;2023-10-19T04:50:06;11.20;63.70
38325;DHT22;24126;52.672;13.622;2023-10-19T04:52:33;11.20;63.90
38325;DHT22;24126;52.672;13.622;2023-10-19T04:55:00;11.20;63.90
38325;DHT22;24126;52.672;13.622;2023-10-19T04:57:28;11.20;63.90
38325;DHT22;24126;52.672;13.622;2023-10-19T04:59:56;11.20;63.90
38325;DHT22;24126;52.672;13.622;2023-10-19T05:02:23;11.20;64.00
38325;DHT22;24126;52.672;13.622;2023-10-19T05:04:50;11.20;64.70
38325;DHT22;24126;52.672;13.622;2023-10-19T05:07:17;11.30;64.00
38325;DHT22;24126;52.672;13.622;2023-10-19T05:09:45;11.30;63.80
38325;DHT22;24126;52.672;13.622;2023-10-19T05:12:13;11.30;63.80
38325;DHT22;24126;52.672;13.622;2023-10-19T05:14:41;11.30;63.70
38325;DHT22;24126;52.672;13.622;2023-10-19T05:17:08;11.20;63.90
38325;DHT22;24126;52.672;13.622;2023-10-19T05:19:36;11.20;64.10
38325;DHT22;24126;52.672;13.622;2023-10-19T05:22:07;11.10;64.60
38325;DHT22;24126;52.672;13.622;2023-10-19T05:24:35;11.10;64.50
38325;DHT22;24126;52.672;13.622;2023-10-19T05:27:02;11.10;64.50
38325;DHT22;24126;52.672;13.622;2023-10-19T05:29:33;11.10;64.30
38325;DHT22;24126;52.672;13.622;2023-10-19T05:32:00;11.10;64.60
38325;DHT22;24126;52.672;13.622;2023-10-19T05:34:27;11.10;64.40
38325;DHT22;24126;52.672;13.622;2023-10-19T05:36:57;11.10;64.50
38325;DHT22;24126;52.672;13.622;2023-10-19T05:39:28;11.10;64.30
38325;DHT22;24126;52.672;13.622;2023-10-19T05:41:56;11.10;64.30
38325;DHT22;24126;52.672;13.622;2023-10-19T05:44:29;11.10;64.70
38325;DHT22;24126;52.672;13.622;2023-10-19T05:46:56;11.10;64.70
38325;DHT22;24126;52.672;13.622;2023-10-19T05:49:24;11.00;64.50
38325;DHT22;24126;52.672;13.622;2023-10-19T05:51:51;11.00;64.80
38325;DHT22;24126;52.672;13.622;2023-10-19T05:54:18;11.00;64.90
38325;DHT22;24126;52.672;13.622;2023-10-19T05:56:45;11.00;64.90
38325;DHT22;24126;52.672;13.622;2023-10-19T05:59:12;11.00;64.70
38325;DHT22;24126;52.672;13.622;2023-10-19T06:01:40;11.00;65.00
38325;DHT22;24126;52.672;13.622;2023-10-19T06:04:07;11.00;65.00
38325;DHT22;24126;52.672;13.622;2023-10-19T06:06:36;11.00;65.00
38325;DHT22;24126;52.672;13.622;2023-10-19T06:09:05;11.00;65.10
38325;DHT22;24126;52.672;13.622;2023-10-19T06:11:34;11.00;65.50
38325;DHT22;24126;52.672;13.622;2023-10-19T06:14:03;11.00;65.30
38325;DHT22;24126;52.672;13.622;2023-10-19T06:16:35;11.00;65.40
38325;DHT22;24126;52.672;13.622;2023-10-19T06:19:03;11.00;65.70
38325;DHT22;24126;52.672;13.622;2023-10-19T06:21:30;11.00;65.70
38325;DHT22;24126;52.672;13.622;2023-10-19T06:23:57;11.00;66.00
38325;DHT22;24126;52.672;13.622;2023-10-19T06:26:24;11.00;66.20
38325;DHT22;24126;52.672;13.622;2023-10-19T06:28:52;11.00;65.90
38325;DHT22;24126;52.672;13.622;2023-10-19T06:31:23;11.00;66.40
38325;DHT22;24126;52.672;13.622;2023-10-19T06:33:50;11.00;66.30
38325;DHT22;24126;52.672;13.622;2023-10-19T06:36:17;10.90;66.80
38325;DHT22;24126;52.672;13.622;2023-10-19T06:38:44;11.00;67.00
38325;DHT22;24126;52.672;13.622;2023-10-19T06:41:12;10.90;67.10
38325;DHT22;24126;52.672;13.622;2023-10-19T06:43:39;11.00;66.90
38325;DHT22;24126;52.672;13.622;2023-10-19T06:46:07;11.00;67.50
38325;DHT22;24126;52.672;13.622;2023-10-19T06:48:37;11.00;67.40
38325;DHT22;24126;52.672;13.622;2023-10-19T06:51:04;11.00;67.50
38325;DHT22;24126;52.672;13.622;2023-10-19T06:53:31;11.00;68.10
38325;DHT22;24126;52.672;13.622;2023-10-19T06:55:59;11.00;68.30
38325;DHT22;24126;52.672;13.622;2023-10-19T06:58:26;11.00;68.30
38325;DHT22;24126;52.672;13.622;2023-10-19T07:00:53;11.00;68.50
38325;DHT22;24126;52.672;13.622;2023-10-19T07:03:25;11.00;68.70
38325;DHT22;24126;52.672;13.622;2023-10-19T07:05:54;10.90;68.60
38325;DHT22;24126;52.672;13.622;2023-10-19T07:08:22;11.00;68.90
38325;DHT22;24126;52.672;13.622;2023-10-19T07:10:49;11.00;69.10
38325;DHT22;24126;52.672;13.622;2023-10-19T07:13:16;11.00;69.30
38325;DHT22;24126;52.672;13.622;2023-10-19T07:15:47;10.90;69.30
38325;DHT22;24126;52.672;13.622;2023-10-19T07:18:14;11.00;69.50
38325;DHT22;24126;52.672;13.622;2023-10-19T07:20:41;11.00;69.30
38325;DHT22;24126;52.672;13.622;2023-10-19T07:23:09;11.00;69.50
38325;DHT22;24126;52.672;13.622;2023-10-19T07:25:44;11.00;69.70
38325;DHT22;24126;52.672;13.622;2023-10-19T07:28:11;11.00;69.30
38325;DHT22;24126;52.672;13.622;2023-10-19T07:30:39;11.00;69.50
38325;DHT22;24126;52.672;13.622;2023-10-19T07:33:10;11.00;69.40
38325;DHT22;24126;52.672;13.622;2023-10-19T07:35:43;11.00;69.70
38325;DHT22;24126;52.672;13.622;2023-10-19T07:38:15;11.00;69.60
38325;DHT22;24126;52.672;13.622;2023-10-19T07:40:42;11.00;69.40
38325;DHT22;24126;52.672;13.622;2023-10-19T07:43:10;11.00;69.50
38325;DHT22;24126;52.672;13.622;2023-10-19T07:45:37;11.00;69.60
38325;DHT22;24126;52.672;13.622;2023-10-19T07:48:04;11.00;69.30
38325;DHT22;24126;52.672;13.622;2023-10-19T07:50:36;11.00;69.50
38325;DHT22;24126;52.672;13.622;2023-10-19T07:53:03;11.00;69.40
38325;DHT22;24126;52.672;13.622;2023-10-19T07:55:30;11.00;69.30
38325;DHT22;24126;52.672;13.622;2023-10-19T07:57:58;11.00;69.30
38325;DHT22;24126;52.672;13.622;2023-10-19T08:00:27;11.00;69.30
38325;DHT22;24126;52.672;13.622;2023-10-19T08:02:55;11.00;69.60
38325;DHT22;24126;52.672;13.622;2023-10-19T08:05:22;11.00;69.10
38325;DHT22;24126;52.672;13.622;2023-10-19T08:07:49;11.00;69.50
38325;DHT22;24126;52.672;13.622;2023-10-19T08:10:17;11.10;69.30
38325;DHT22;24126;52.672;13.622;2023-10-19T08:12:44;11.10;69.50
38325;DHT22;24126;52.672;13.622;2023-10-19T08:15:13;11.20;69.00
38325;DHT22;24126;52.672;13.622;2023-10-19T08:17:41;11.10;69.40
38325;DHT22;24126;52.672;13.622;2023-10-19T08:20:09;11.20;69.40
38325;DHT22;24126;52.672;13.622;2023-10-19T08:22:42;11.20;68.90
38325;DHT22;24126;52.672;13.622;2023-10-19T08:25:09;11.30;68.90
38325;DHT22;24126;52.672;13.622;2023-10-19T08:27:38;11.40;68.70
38325;DHT22;24126;52.672;13.622;2023-10-19T08:30:07;11.40;68.80
38325;DHT22;24126;52.672;13.622;2023-10-19T08:32:36;11.40;68.60
38325;DHT22;24126;52.672;13.622;2023-10-19T08:35:03;11.40;68.40
38325;DHT22;24126;52.672;13.622;2023-10-19T08:37:31;11.40;68.40
38325;DHT22;24126;52.672;13.622;2023-10-19T08:39:59;11.50;68.60
38325;DHT22;24126;52.672;13.622;2023-10-19T08:42:26;11.50;68.40
38325;DHT22;24126;52.672;13.622;2023-10-19T08:44:56;11.60;68.30
38325;DHT22;24126;52.672;13.622;2023-10-19T08:47:25;11.70;68.00
38325;DHT22;24126;52.672;13.622;2023-10-19T08:49:53;11.70;67.70
38325;DHT22;24126;52.672;13.622;2023-10-19T08:52:21;11.70;68.00
38325;DHT22;24126;52.672;13.622;2023-10-19T08:54:49;11.60;68.20
38325;DHT22;24126;52.672;13.622;2023-10-19T08:57:16;11.70;67.90
38325;DHT22;24126;52.672;13.622;2023-10-19T08:59:44;11.70;68.20
38325;DHT22;24126;52.672;13.622;2023-10-19T09:02:12;11.70;68.30
38325;DHT22;24126;52.672;13.622;2023-10-19T09:04:43;11.70;67.70
38325;DHT22;24126;52.672;13.622;2023-10-19T09:07:10;11.80;67.80
38325;DHT22;24126;52.672;13.622;2023-10-19T09:09:37;11.80;67.90
38325;DHT22;24126;52.672;13.622;2023-10-19T09:12:07;11.80;68.30
38325;DHT22;24126;52.672;13.622;2023-10-19T09:14:35;11.80;67.80
38325;DHT22;24126;52.672;13.622;2023-10-19T09:17:07;11.80;67.90
38325;DHT22;24126;52.672;13.622;2023-10-19T09:19:43;11.90;67.70
38325;DHT22;24126;52.672;13.622;2023-10-19T09:22:13;11.90;68.00
38325;DHT22;24126;52.672;13.622;2023-10-19T09:24:44;11.80;68.00
38325;DHT22;24126;52.672;13.622;2023-10-19T09:27:12;11.90;68.10
38325;DHT22;24126;52.672;13.622;2023-10-19T09:29:39;11.90;68.10
38325;DHT22;24126;52.672;13.622;2023-10-19T09:32:07;11.90;68.00
38325;DHT22;24126;52.672;13.622;2023-10-19T09:34:35;11.90;68.00
38325;DHT22;24126;52.672;13.622;2023-10-19T09:37:03;11.90;68.20
38325;DHT22;24126;52.672;13.622;2023-10-19T09:39:30;12.00;68.20
38325;DHT22;24126;52.672;13.622;2023-10-19T09:42:07;12.00;68.40
38325;DHT22;24126;52.672;13.622;2023-10-19T09:44:43;12.00;68.10
38325;DHT22;24126;52.672;13.622;2023-10-19T09:47:13;12.00;68.20
38325;DHT22;24126;52.672;13.622;2023-10-19T09:49:42;12.10;68.40
38325;DHT22;24126;52.672;13.622;2023-10-19T09:52:09;12.10;68.00
38325;DHT22;24126;52.672;13.622;2023-10-19T09:57:27;12.10;68.50
38325;DHT22;24126;52.672;13.622;2023-10-19T09:59:59;12.10;68.50
38325;DHT22;24126;52.672;13.622;2023-10-19T10:02:43;12.10;68.20
38325;DHT22;24126;52.672;13.622;2023-10-19T10:08:27;12.10;68.20
38325;DHT22;24126;52.672;13.622;2023-10-19T10:10:54;12.10;68.40
38325;DHT22;24126;52.672;13.622;2023-10-19T10:15:53;12.20;68.40
38325;DHT22;24126;52.672;13.622;2023-10-19T10:18:20;12.20;68.30
38325;DHT22;24126;52.672;13.622;2023-10-19T10:23:42;12.30;68.00
38325;DHT22;24126;52.672;13.622;2023-10-19T10:26:10;12.30;67.90
38325;DHT22;24126;52.672;13.622;2023-10-19T10:28:38;12.40;67.50
38325;DHT22;24126;52.672;13.622;2023-10-19T10:33:44;12.40;67.90
38325;DHT22;24126;52.672;13.622;2023-10-19T10:36:14;12.30;67.50
38325;DHT22;24126;52.672;13.622;2023-10-19T10:38:43;12.40;67.90
38325;DHT22;24126;52.672;13.622;2023-10-19T10:41:10;12.40;67.60
38325;DHT22;24126;52.672;13.622;2023-10-19T10:43:50;12.40;68.10
38325;DHT22;24126;52.672;13.622;2023-10-19T10:46:27;12.40;67.50
38325;DHT22;24126;52.672;13.622;2023-10-19T10:48:55;12.40;67.40
38325;DHT22;24126;52.672;13.622;2023-10-19T10:51:23;12.30;67.50
38325;DHT22;24126;52.672;13.622;2023-10-19T10:53:51;12.20;67.50
38325;DHT22;24126;52.672;13.622;2023-10-19T10:56:19;12.20;67.60
38325;DHT22;24126;52.672;13.622;2023-10-19T10:58:51;12.20;68.10
38325;DHT22;24126;52.672;13.622;2023-10-19T11:01:30;12.20;67.70
38325;DHT22;24126;52.672;13.622;2023-10-19T11:04:08;12.30;67.90
38325;DHT22;24126;52.672;13.622;2023-10-19T11:06:48;12.30;68.00
38325;DHT22;24126;52.672;13.622;2023-10-19T11:09:16;12.40;67.60
38325;DHT22;24126;52.672;13.622;2023-10-19T11:11:45;12.40;67.60
38325;DHT22;24126;52.672;13.622;2023-10-19T11:14:13;12.40;67.60
38325;DHT22;24126;52.672;13.622;2023-10-19T11:16:40;12.50;67.60
38325;DHT22;24126;52.672;13.622;2023-10-19T11:19:09;12.50;67.30
38325;DHT22;24126;52.672;13.622;2023-10-19T11:21:36;12.40;67.20
38325;DHT22;24126;52.672;13.622;2023-10-19T11:24:03;12.40;67.30
38325;DHT22;24126;52.672;13.622;2023-10-19T11:26:30;12.40;67.40
38325;DHT22;24126;52.672;13.622;2023-10-19T11:28:58;12.40;67.40
38325;DHT22;24126;52.672;13.622;2023-10-19T11:31:26;12.40;67.30
38325;DHT22;24126;52.672;13.622;2023-10-19T11:34:03;12.50;67.60
38325;DHT22;24126;52.672;13.622;2023-10-19T11:36:30;12.40;67.50
38325;DHT22;24126;52.672;13.622;2023-10-19T11:38:57;12.40;67.60
38325;DHT22;24126;52.672;13.622;2023-10-19T11:41:24;12.40;67.60
38325;DHT22;24126;52.672;13.622;2023-10-19T11:43:51;12.40;67.60
38325;DHT22;24126;52.672;13.622;2023-10-19T11:46:18;12.40;67.90
38325;DHT22;24126;52.672;13.622;2023-10-19T11:48:48;12.40;68.10
38325;DHT22;24126;52.672;13.622;2023-10-19T11:51:15;12.40;68.20
38325;DHT22;24126;52.672;13.622;2023-10-19T11:53:42;12.40;68.30
38325;DHT22;24126;52.672;13.622;2023-10-19T11:56:10;12.40;68.50
38325;DHT22;24126;52.672;13.622;2023-10-19T11:58:38;12.40;68.20
38325;DHT22;24126;52.672;13.622;2023-10-19T12:01:08;12.50;68.70
38325;DHT22;24126;52.672;13.622;2023-10-19T12:03:38;12.50;68.70
38325;DHT22;24126;52.672;13.622;2023-10-19T12:06:06;12.50;68.60
38325;DHT22;24126;52.672;13.622;2023-10-19T12:08:34;12.50;68.50
38325;DHT22;24126;52.672;13.622;2023-10-19T12:11:01;12.50;68.50
38325;DHT22;24126;52.672;13.622;2023-10-19T12:13:30;12.50;68.70
38325;DHT22;24126;52.672;13.622;2023-10-19T12:15:57;12.50;69.00
38325;DHT22;24126;52.672;13.622;2023-10-19T12:18:24;12.50;69.50
38325;DHT22;24126;52.672;13.622;2023-10-19T12:20:54;12.50;69.60
38325;DHT22;24126;52.672;13.622;2023-10-19T12:23:22;12.50;69.30
38325;DHT22;24126;52.672;13.622;2023-10-19T12:25:50;12.60;69.20
38325;DHT22;24126;52.672;13.622;2023-10-19T12:28:18;12.60;69.10
38325;DHT22;24126;52.672;13.622;2023-10-19T12:30:45;12.50;68.70
38325;DHT22;24126;52.672;13.622;2023-10-19T12:33:12;12.50;68.80
38325;DHT22;24126;52.672;13.622;2023-10-19T12:35:42;12.50;68.80
38325;DHT22;24126;52.672;13.622;2023-10-19T12:38:13;12.60;69.00
38325;DHT22;24126;52.672;13.622;2023-10-19T12:40:44;12.60;68.80
38325;DHT22;24126;52.672;13.622;2023-10-19T12:43:12;12.60;68.60
38325;DHT22;24126;52.672;13.622;2023-10-19T12:45:39;12.60;68.70
38325;DHT22;24126;52.672;13.622;2023-10-19T12:48:07;12.60;68.80
38325;DHT22;24126;52.672;13.622;2023-10-19T12:50:37;12.70;68.70
38325;DHT22;24126;52.672;13.622;2023-10-19T12:53:04;12.70;68.40
38325;DHT22;24126;52.672;13.622;2023-10-19T12:55:32;12.70;68.40
38325;DHT22;24126;52.672;13.622;2023-10-19T12:58:00;12.60;68.40
38325;DHT22;24126;52.672;13.622;2023-10-19T13:00:33;12.60;68.80
38325;DHT22;24126;52.672;13.622;2023-10-19T13:03:06;12.60;68.90
38325;DHT22;24126;52.672;13.622;2023-10-19T13:05:34;12.60;68.90
38325;DHT22;24126;52.672;13.622;2023-10-19T13:08:04;12.60;68.90
38325;DHT22;24126;52.672;13.622;2023-10-19T13:10:32;12.60;68.90
38325;DHT22;24126;52.672;13.622;2023-10-19T13:13:04;12.60;69.00
38325;DHT22;24126;52.672;13.622;2023-10-19T13:15:35;12.60;69.10
38325;DHT22;24126;52.672;13.622;2023-10-19T13:18:02;12.60;69.00
38325;DHT22;24126;52.672;13.622;2023-10-19T13:20:36;12.50;69.30
38325;DHT22;24126;52.672;13.622;2023-10-19T13:23:04;12.50;69.30
38325;DHT22;24126;52.672;13.622;2023-10-19T13:25:33;12.50;69.70
38325;DHT22;24126;52.672;13.622;2023-10-19T13:28:10;12.50;69.90
38325;DHT22;24126;52.672;13.622;2023-10-19T13:30:42;12.50;69.80
38325;DHT22;24126;52.672;13.622;2023-10-19T13:33:09;12.50;70.00
38325;DHT22;24126;52.672;13.622;2023-10-19T13:35:37;12.50;70.20
38325;DHT22;24126;52.672;13.622;2023-10-19T13:38:05;12.50;70.30
38325;DHT22;24126;52.672;13.622;2023-10-19T13:40:34;12.40;70.70
38325;DHT22;24126;52.672;13.622;2023-10-19T13:43:02;12.50;70.90
38325;DHT22;24126;52.672;13.622;2023-10-19T13:45:50;12.50;70.80
38325;DHT22;24126;52.672;13.622;2023-10-19T13:48:19;12.40;71.10
38325;DHT22;24126;52.672;13.622;2023-10-19T13:50:47;12.40;71.40
38325;DHT22;24126;52.672;13.622;2023-10-19T13:53:18;12.50;71.30
38325;DHT22;24126;52.672;13.622;2023-10-19T13:55:45;12.50;71.30
38325;DHT22;24126;52.672;13.622;2023-10-19T13:58:13;12.50;71.10
38325;DHT22;24126;52.672;13.622;2023-10-19T14:00:43;12.50;71.20
38325;DHT22;24126;52.672;13.622;2023-10-19T14:03:11;12.50;71.30
38325;DHT22;24126;52.672;13.622;2023-10-19T14:05:40;12.40;71.50
38325;DHT22;24126;52.672;13.622;2023-10-19T14:08:08;12.40;71.50
38325;DHT22;24126;52.672;13.622;2023-10-19T14:10:36;12.40;71.80
38325;DHT22;24126;52.672;13.622;2023-10-19T14:13:05;12.40;72.00
38325;DHT22;24126;52.672;13.622;2023-10-19T14:15:32;12.40;71.70
38325;DHT22;24126;52.672;13.622;2023-10-19T14:18:00;12.40;71.80
38325;DHT22;24126;52.672;13.622;2023-10-19T14:20:30;12.40;72.10
38325;DHT22;24126;52.672;13.622;2023-10-19T14:23:00;12.40;72.30
38325;DHT22;24126;52.672;13.622;2023-10-19T14:25:27;12.30;71.90
38325;DHT22;24126;52.672;13.622;2023-10-19T14:27:55;12.30;72.40
38325;DHT22;24126;52.672;13.622;2023-10-19T14:30:25;12.30;72.50
38325;DHT22;24126;52.672;13.622;2023-10-19T14:32:53;12.30;72.40
38325;DHT22;24126;52.672;13.622;2023-10-19T14:35:20;12.30;72.40
38325;DHT22;24126;52.672;13.622;2023-10-19T14:37:48;12.30;72.30
38325;DHT22;24126;52.672;13.622;2023-10-19T14:40:19;12.30;72.20
38325;DHT22;24126;52.672;13.622;2023-10-19T14:42:47;12.30;72.70
38325;DHT22;24126;52.672;13.622;2023-10-19T14:45:16;12.20;72.50
38325;DHT22;24126;52.672;13.622;2023-10-19T14:47:47;12.20;72.30
38325;DHT22;24126;52.672;13.622;2023-10-19T14:50:15;12.20;73.10
38325;DHT22;24126;52.672;13.622;2023-10-19T14:52:44;12.20;73.00
38325;DHT22;24126;52.672;13.622;2023-10-19T14:55:12;12.20;72.80
38325;DHT22;24126;52.672;13.622;2023-10-19T14:57:42;12.20;73.10
38325;DHT22;24126;52.672;13.622;2023-10-19T15:00:09;12.20;73.00
38325;DHT22;24126;52.672;13.622;2023-10-19T15:02:43;12.10;73.40
38325;DHT22;24126;52.672;13.622;2023-10-19T15:05:11;12.20;73.60
38325;DHT22;24126;52.672;13.622;2023-10-19T15:07:40;12.20;73.80
38325;DHT22;24126;52.672;13.622;2023-10-19T15:10:08;12.10;73.90
38325;DHT22;24126;52.672;13.622;2023-10-19T15:12:36;12.20;74.10
38325;DHT22;24126;52.672;13.622;2023-10-19T15:15:03;12.20;74.00
38325;DHT22;24126;52.672;13.622;2023-10-19T15:17:31;12.10;74.30
38325;DHT22;24126;52.672;13.622;2023-10-19T15:19:58;12.10;74.40
38325;DHT22;24126;52.672;13.622;2023-10-19T15:22:25;12.20;74.30
38325;DHT22;24126;52.672;13.622;2023-10-19T15:24:53;12.20;74.30
38325;DHT22;24126;52.672;13.622;2023-10-19T15:27:20;12.10;74.50
38325;DHT22;24126;52.672;13.622;2023-10-19T15:29:47;12.10;74.60
38325;DHT22;24126;52.672;13.622;2023-10-19T15:32:14;12.10;74.80
38325;DHT22;24126;52.672;13.622;2023-10-19T15:34:41;12.10;74.80
38325;DHT22;24126;52.672;13.622;2023-10-19T15:37:09;12.10;75.20
38325;DHT22;24126;52.672;13.622;2023-10-19T15:39:36;12.10;75.10
38325;DHT22;24126;52.672;13.622;2023-10-19T15:42:03;12.10;75.20
38325;DHT22;24126;52.672;13.622;2023-10-19T15:44:34;12.10;75.00
38325;DHT22;24126;52.672;13.622;2023-10-19T15:47:02;12.00;75.10